WXM80 ListenWXM80 Stop

You find our weather info also at:

UK Metoffice

WeatherCloud

Weather Underground

Northeastern Weather Network

AWEKAS

Citizen Weather Observer Program (CWOP)

HAMweather, WeatherForYou, PWS Weather


Weather Underground History page Text

Daily Summary for October 14, 2017 Units:  Both    English   Metric
« Previous Day
Next Day »
Daily Weekly Monthly Yearly Custom
  High: Low: Average:
Temperature: 72.6 °F /  22.6 °C 61.6 °F /  16.4 °C 65.9 °F /  18.8 °C
Dew Point: 67.7 °F /  19.8 °C 59.3 °F /  15.2 °C 63.5 °F /  17.5 °C
Humidity: 97 % 82 % 92 %
Wind Speed: 5.2 mph /  8.4 km/h - 1.1 mph /  1.8 km/h
Wind Gust: 9.2 mph /  14.8 km/h - -
Wind:- - ENE
Pressure: 30.25 in /  1024.3 hPa 29.99 in /  1015.5 hPa -
Precipitation: 0.02 in /  0.51 mm    
Historical Graphs
 
 
Tabular Data for October 14, 2017
Time Temperature Dew Point Pressure Wind Wind Speed Wind Gust Humidity Rainfall Rate (Hourly)
00:04 61.6 °F /  16.4 °C 59.3 °F /  15.2 °C 30.25 in /  1024.3 hPa Calm     92 % 0.00 in /  0 mm
00:09 61.6 °F /  16.4 °C 59.3 °F /  15.2 °C 30.25 in /  1024.3 hPa SE 0.3 mph /  0.5 km/h 1.2 mph /  1.9 km/h 92 % 0.00 in /  0 mm
00:14 61.7 °F /  16.5 °C 59.4 °F /  15.2 °C 30.25 in /  1024.3 hPa Calm   1.2 mph /  1.9 km/h 92 % 0.00 in /  0 mm
00:19 61.7 °F /  16.5 °C 59.4 °F /  15.2 °C 30.25 in /  1024.3 hPa Calm   1.2 mph /  1.9 km/h 92 % 0.00 in /  0 mm
00:24 61.8 °F /  16.6 °C 59.5 °F /  15.3 °C 30.25 in /  1024.3 hPa Calm   1.2 mph /  1.9 km/h 92 % 0.00 in /  0 mm
00:29 61.8 °F /  16.6 °C 59.5 °F /  15.3 °C 30.25 in /  1024.3 hPa SE 0.1 mph /  0.2 km/h 1.2 mph /  1.9 km/h 92 % 0.00 in /  0 mm
00:34 61.9 °F /  16.6 °C 59.5 °F /  15.3 °C 30.25 in /  1024.3 hPa SE 0.3 mph /  0.5 km/h 1.2 mph /  1.9 km/h 92 % 0.00 in /  0 mm
00:39 61.9 °F /  16.6 °C 59.5 °F /  15.3 °C 30.25 in /  1024.3 hPa Calm   1.0 mph /  1.6 km/h 92 % 0.00 in /  0 mm
00:44 61.9 °F /  16.6 °C 59.5 °F /  15.3 °C 30.25 in /  1024.3 hPa Calm     92 % 0.00 in /  0 mm
00:49 62.0 °F /  16.7 °C 59.6 °F /  15.3 °C 30.25 in /  1024.3 hPa Calm     92 % 0.00 in /  0 mm
00:54 62.0 °F /  16.7 °C 59.6 °F /  15.3 °C 30.25 in /  1024.3 hPa Calm     92 % 0.00 in /  0 mm
00:59 62.1 °F /  16.7 °C 60.1 °F /  15.6 °C 30.25 in /  1024.3 hPa Calm   1.2 mph /  1.9 km/h 93 % 0.00 in /  0 mm
01:04 62.1 °F /  16.7 °C 60.1 °F /  15.6 °C 30.24 in /  1023.9 hPa SE 0.1 mph /  0.2 km/h 1.2 mph /  1.9 km/h 93 % 0.00 in /  0 mm
01:09 62.2 °F /  16.8 °C 60.2 °F /  15.7 °C 30.24 in /  1023.9 hPa Calm     93 % 0.00 in /  0 mm
01:14 62.2 °F /  16.8 °C 60.2 °F /  15.7 °C 30.24 in /  1023.9 hPa Calm     93 % 0.00 in /  0 mm
01:19 62.2 °F /  16.8 °C 60.2 °F /  15.7 °C 30.24 in /  1023.9 hPa Calm   1.2 mph /  1.9 km/h 93 % 0.00 in /  0 mm
01:24 62.2 °F /  16.8 °C 60.2 °F /  15.7 °C 30.24 in /  1023.9 hPa Calm   1.0 mph /  1.6 km/h 93 % 0.00 in /  0 mm
01:29 62.2 °F /  16.8 °C 60.2 °F /  15.7 °C 30.24 in /  1023.9 hPa SE 0.2 mph /  0.3 km/h 1.2 mph /  1.9 km/h 93 % 0.00 in /  0 mm
01:34 62.2 °F /  16.8 °C 60.2 °F /  15.7 °C 30.25 in /  1024.3 hPa Calm     93 % 0.00 in /  0 mm
01:39 62.1 °F /  16.7 °C 60.4 °F /  15.8 °C 30.25 in /  1024.3 hPa Calm   1.0 mph /  1.6 km/h 94 % 0.00 in /  0 mm
01:44 62.1 °F /  16.7 °C 60.4 °F /  15.8 °C 30.24 in /  1023.9 hPa Calm     94 % 0.00 in /  0 mm
01:50 62.1 °F /  16.7 °C 60.4 °F /  15.8 °C 30.24 in /  1023.9 hPa Calm     94 % 0.00 in /  0 mm
01:55 62.2 °F /  16.8 °C 60.5 °F /  15.8 °C 30.24 in /  1023.9 hPa Calm     94 % 0.00 in /  0 mm
02:00 62.2 °F /  16.8 °C 60.5 °F /  15.8 °C 30.23 in /  1023.6 hPa Calm     94 % 0.00 in /  0 mm
02:05 62.3 °F /  16.8 °C 60.6 °F /  15.9 °C 30.24 in /  1023.9 hPa Calm   1.0 mph /  1.6 km/h 94 % 0.00 in /  0 mm
02:10 62.4 °F /  16.9 °C 60.7 °F /  15.9 °C 30.23 in /  1023.6 hPa SE 0.1 mph /  0.2 km/h 1.2 mph /  1.9 km/h 94 % 0.00 in /  0 mm
02:15 62.5 °F /  16.9 °C 60.7 °F /  15.9 °C 30.22 in /  1023.2 hPa SE 0.5 mph /  0.8 km/h 1.2 mph /  1.9 km/h 94 % 0.00 in /  0 mm
02:20 62.5 °F /  16.9 °C 60.7 °F /  15.9 °C 30.23 in /  1023.6 hPa SE 0.2 mph /  0.3 km/h 1.2 mph /  1.9 km/h 94 % 0.00 in /  0 mm
02:25 62.6 °F /  17 °C 60.8 °F /  16 °C 30.23 in /  1023.6 hPa Calm   1.2 mph /  1.9 km/h 94 % 0.00 in /  0 mm
02:30 62.7 °F /  17.1 °C 60.9 °F /  16.1 °C 30.23 in /  1023.6 hPa Calm   1.2 mph /  1.9 km/h 94 % 0.00 in /  0 mm
02:35 62.8 °F /  17.1 °C 61.3 °F /  16.3 °C 30.23 in /  1023.6 hPa Calm   1.2 mph /  1.9 km/h 95 % 0.01 in /  0.25 mm
02:40 62.8 °F /  17.1 °C 61.3 °F /  16.3 °C 30.22 in /  1023.2 hPa Calm     95 % 0.01 in /  0.25 mm
02:45 62.9 °F /  17.2 °C 61.4 °F /  16.3 °C 30.22 in /  1023.2 hPa Calm   1.2 mph /  1.9 km/h 95 % 0.01 in /  0.25 mm
02:50 62.9 °F /  17.2 °C 61.4 °F /  16.3 °C 30.23 in /  1023.6 hPa SE 0.2 mph /  0.3 km/h 1.2 mph /  1.9 km/h 95 % 0.01 in /  0.25 mm
02:56 62.9 °F /  17.2 °C 61.4 °F /  16.3 °C 30.22 in /  1023.2 hPa Calm   1.0 mph /  1.6 km/h 95 % 0.00 in /  0 mm
03:01 62.9 °F /  17.2 °C 61.4 °F /  16.3 °C 30.21 in /  1022.9 hPa SE 0.2 mph /  0.3 km/h 1.2 mph /  1.9 km/h 95 % 0.01 in /  0.25 mm
03:06 63.0 °F /  17.2 °C 61.5 °F /  16.4 °C 30.21 in /  1022.9 hPa East 0.8 mph /  1.3 km/h 2.3 mph /  3.7 km/h 95 % 0.01 in /  0.25 mm
03:11 63.0 °F /  17.2 °C 61.5 °F /  16.4 °C 30.20 in /  1022.6 hPa ENE 1.0 mph /  1.6 km/h 4.0 mph /  6.4 km/h 95 % 0.00 in /  0 mm
03:16 63.0 °F /  17.2 °C 61.5 °F /  16.4 °C 30.21 in /  1022.9 hPa ENE 4.3 mph /  6.9 km/h 5.8 mph /  9.3 km/h 95 % 0.01 in /  0.25 mm
03:21 62.9 °F /  17.2 °C 61.4 °F /  16.3 °C 30.20 in /  1022.6 hPa ENE 3.0 mph /  4.8 km/h 8.0 mph /  12.9 km/h 95 % 0.00 in /  0 mm
03:26 62.9 °F /  17.2 °C 61.4 °F /  16.3 °C 30.20 in /  1022.6 hPa ENE 2.0 mph /  3.2 km/h 7.0 mph /  11.3 km/h 95 % 0.00 in /  0 mm
03:31 62.8 °F /  17.1 °C 61.3 °F /  16.3 °C 30.21 in /  1022.9 hPa ENE 3.0 mph /  4.8 km/h 9.0 mph /  14.5 km/h 95 % 0.00 in /  0 mm
03:36 62.7 °F /  17.1 °C 61.3 °F /  16.3 °C 30.21 in /  1022.9 hPa NE 2.0 mph /  3.2 km/h 9.0 mph /  14.5 km/h 95 % 0.00 in /  0 mm
03:41 62.7 °F /  17.1 °C 61.2 °F /  16.2 °C 30.21 in /  1022.9 hPa ENE 2.0 mph /  3.2 km/h 8.0 mph /  12.9 km/h 95 % 0.00 in /  0 mm
03:51 62.7 °F /  17.1 °C 61.2 °F /  16.2 °C 30.21 in /  1022.9 hPa ENE 2.0 mph /  3.2 km/h 5.0 mph /  8 km/h 95 % 0.00 in /  0 mm
03:56 62.7 °F /  17.1 °C 61.2 °F /  16.2 °C 30.20 in /  1022.6 hPa NE 2.0 mph /  3.2 km/h 6.0 mph /  9.7 km/h 95 % 0.00 in /  0 mm
04:01 62.7 °F /  17.1 °C 61.2 °F /  16.2 °C 30.20 in /  1022.6 hPa ENE 2.6 mph /  4.2 km/h 3.5 mph /  5.6 km/h 95 % 0.00 in /  0 mm
04:05 62.7 °F /  17.1 °C 61.2 °F /  16.2 °C 30.21 in /  1022.9 hPa ENE 1.1 mph /  1.8 km/h 2.3 mph /  3.7 km/h 95 % 0.00 in /  0 mm
04:10 62.8 °F /  17.1 °C 61.3 °F /  16.3 °C 30.21 in /  1022.9 hPa ENE 0.9 mph /  1.4 km/h 3.5 mph /  5.6 km/h 95 % 0.00 in /  0 mm
04:16 62.8 °F /  17.1 °C 61.3 °F /  16.3 °C 30.20 in /  1022.6 hPa ENE 3.0 mph /  4.8 km/h 7.0 mph /  11.3 km/h 95 % 0.00 in /  0 mm
04:21 62.8 °F /  17.1 °C 61.3 °F /  16.3 °C 30.20 in /  1022.6 hPa ENE 1.0 mph /  1.6 km/h 7.0 mph /  11.3 km/h 95 % 0.00 in /  0 mm
04:26 62.8 °F /  17.1 °C 61.3 °F /  16.3 °C 30.20 in /  1022.6 hPa ENE 2.0 mph /  3.2 km/h 9.0 mph /  14.5 km/h 95 % 0.00 in /  0 mm
04:31 62.8 °F /  17.1 °C 61.3 °F /  16.3 °C 30.20 in /  1022.6 hPa ENE 1.0 mph /  1.6 km/h 5.0 mph /  8 km/h 95 % 0.00 in /  0 mm
04:36 62.8 °F /  17.1 °C 61.3 °F /  16.3 °C 30.20 in /  1022.6 hPa NE 2.0 mph /  3.2 km/h 8.0 mph /  12.9 km/h 95 % 0.00 in /  0 mm
04:41 62.8 °F /  17.1 °C 61.3 °F /  16.3 °C 30.20 in /  1022.6 hPa NE 1.0 mph /  1.6 km/h 7.0 mph /  11.3 km/h 95 % 0.00 in /  0 mm
04:46 62.8 °F /  17.1 °C 61.4 °F /  16.3 °C 30.20 in /  1022.6 hPa Calm   3.0 mph /  4.8 km/h 95 % 0.00 in /  0 mm
04:51 62.9 °F /  17.2 °C 61.4 °F /  16.3 °C 30.20 in /  1022.6 hPa ENE 1.0 mph /  1.6 km/h 5.0 mph /  8 km/h 95 % 0.00 in /  0 mm
04:56 62.9 °F /  17.2 °C 61.4 °F /  16.3 °C 30.20 in /  1022.6 hPa ENE 1.0 mph /  1.6 km/h 7.0 mph /  11.3 km/h 95 % 0.00 in /  0 mm
05:01 62.9 °F /  17.2 °C 61.4 °F /  16.3 °C 30.19 in /  1022.2 hPa ENE 0.5 mph /  0.8 km/h 2.3 mph /  3.7 km/h 95 % 0.00 in /  0 mm
05:06 63.0 °F /  17.2 °C 61.8 °F /  16.6 °C 30.20 in /  1022.6 hPa ENE 2.4 mph /  3.9 km/h 4.0 mph /  6.4 km/h 96 % 0.00 in /  0 mm
05:11 63.0 °F /  17.2 °C 61.8 °F /  16.6 °C 30.19 in /  1022.2 hPa ENE 2.3 mph /  3.7 km/h 3.5 mph /  5.6 km/h 96 % 0.00 in /  0 mm
05:16 63.1 °F /  17.3 °C 61.9 °F /  16.6 °C 30.19 in /  1022.2 hPa ENE 1.1 mph /  1.8 km/h 3.5 mph /  5.6 km/h 96 % 0.00 in /  0 mm
05:21 63.1 °F /  17.3 °C 61.9 °F /  16.6 °C 30.19 in /  1022.2 hPa ENE 2.1 mph /  3.4 km/h 3.5 mph /  5.6 km/h 96 % 0.00 in /  0 mm
05:26 63.1 °F /  17.3 °C 61.9 °F /  16.6 °C 30.20 in /  1022.6 hPa NE 2.6 mph /  4.2 km/h 3.5 mph /  5.6 km/h 96 % 0.00 in /  0 mm
05:31 63.2 °F /  17.3 °C 62.0 °F /  16.7 °C 30.20 in /  1022.6 hPa East 1.2 mph /  1.9 km/h 3.5 mph /  5.6 km/h 96 % 0.00 in /  0 mm
05:36 63.2 °F /  17.3 °C 62.0 °F /  16.7 °C 30.20 in /  1022.6 hPa ENE 1.5 mph /  2.4 km/h 2.3 mph /  3.7 km/h 96 % 0.00 in /  0 mm
05:41 63.2 °F /  17.3 °C 62.0 °F /  16.7 °C 30.20 in /  1022.6 hPa ENE 3.5 mph /  5.6 km/h 9.2 mph /  14.8 km/h 96 % 0.00 in /  0 mm
05:46 63.3 °F /  17.4 °C 62.1 °F /  16.7 °C 30.20 in /  1022.6 hPa NE 2.0 mph /  3.2 km/h 4.6 mph /  7.4 km/h 96 % 0.00 in /  0 mm
05:51 63.3 °F /  17.4 °C 62.1 °F /  16.7 °C 30.20 in /  1022.6 hPa ENE 1.1 mph /  1.8 km/h 2.3 mph /  3.7 km/h 96 % 0.00 in /  0 mm
05:56 63.4 °F /  17.4 °C 62.2 °F /  16.8 °C 30.20 in /  1022.6 hPa ENE 2.2 mph /  3.5 km/h 3.5 mph /  5.6 km/h 96 % 0.00 in /  0 mm
06:01 63.4 °F /  17.4 °C 61.9 °F /  16.6 °C 30.20 in /  1022.6 hPa ENE 2.5 mph /  4 km/h 4.0 mph /  6.4 km/h 95 % 0.00 in /  0 mm
06:06 63.4 °F /  17.4 °C 61.9 °F /  16.6 °C 30.19 in /  1022.2 hPa ENE 2.4 mph /  3.9 km/h 4.0 mph /  6.4 km/h 95 % 0.00 in /  0 mm
06:11 63.5 °F /  17.5 °C 62.0 °F /  16.7 °C 30.19 in /  1022.2 hPa ENE 1.0 mph /  1.6 km/h 3.5 mph /  5.6 km/h 95 % 0.00 in /  0 mm
06:16 63.5 °F /  17.5 °C 62.0 °F /  16.7 °C 30.19 in /  1022.2 hPa ENE 2.1 mph /  3.4 km/h 5.0 mph /  8 km/h 95 % 0.00 in /  0 mm
06:21 63.6 °F /  17.6 °C 62.4 °F /  16.9 °C 30.19 in /  1022.2 hPa ENE 1.1 mph /  1.8 km/h 3.5 mph /  5.6 km/h 96 % 0.00 in /  0 mm
06:26 63.6 °F /  17.6 °C 62.4 °F /  16.9 °C 30.19 in /  1022.2 hPa ENE 1.5 mph /  2.4 km/h 2.3 mph /  3.7 km/h 96 % 0.00 in /  0 mm
06:31 63.7 °F /  17.6 °C 62.5 °F /  16.9 °C 30.19 in /  1022.2 hPa ENE 0.4 mph /  0.6 km/h 2.3 mph /  3.7 km/h 96 % 0.00 in /  0 mm
06:36 63.7 °F /  17.6 °C 62.5 °F /  16.9 °C 30.19 in /  1022.2 hPa ENE 1.1 mph /  1.8 km/h 2.3 mph /  3.7 km/h 96 % 0.00 in /  0 mm
06:41 63.7 °F /  17.6 °C 62.5 °F /  16.9 °C 30.20 in /  1022.6 hPa East 2.8 mph /  4.5 km/h 6.9 mph /  11.1 km/h 96 % 0.00 in /  0 mm
06:46 63.7 °F /  17.6 °C 62.5 °F /  16.9 °C 30.19 in /  1022.2 hPa ENE 4.1 mph /  6.6 km/h 6.9 mph /  11.1 km/h 96 % 0.00 in /  0 mm
06:51 63.8 °F /  17.7 °C 62.6 °F /  17 °C 30.20 in /  1022.6 hPa ENE 2.3 mph /  3.7 km/h 6.9 mph /  11.1 km/h 96 % 0.00 in /  0 mm
06:57 63.8 °F /  17.7 °C 62.6 °F /  17 °C 30.20 in /  1022.6 hPa ENE 1.5 mph /  2.4 km/h 3.5 mph /  5.6 km/h 96 % 0.00 in /  0 mm
07:02 63.8 °F /  17.7 °C 62.6 °F /  17 °C 30.18 in /  1021.9 hPa ENE 1.9 mph /  3.1 km/h 3.5 mph /  5.6 km/h 96 % 0.00 in /  0 mm
07:07 63.8 °F /  17.7 °C 62.6 °F /  17 °C 30.18 in /  1021.9 hPa ENE 0.3 mph /  0.5 km/h 3.5 mph /  5.6 km/h 96 % 0.00 in /  0 mm
07:12 63.9 °F /  17.7 °C 62.7 °F /  17.1 °C 30.18 in /  1021.9 hPa ENE 1.5 mph /  2.4 km/h 4.6 mph /  7.4 km/h 96 % 0.00 in /  0 mm
07:17 63.9 °F /  17.7 °C 62.7 °F /  17.1 °C 30.19 in /  1022.2 hPa ENE 2.2 mph /  3.5 km/h 3.5 mph /  5.6 km/h 96 % 0.00 in /  0 mm
07:22 64.0 °F /  17.8 °C 62.8 °F /  17.1 °C 30.18 in /  1021.9 hPa ENE 1.7 mph /  2.7 km/h 3.5 mph /  5.6 km/h 96 % 0.00 in /  0 mm
07:27 64.0 °F /  17.8 °C 62.8 °F /  17.1 °C 30.18 in /  1021.9 hPa ENE 1.4 mph /  2.3 km/h 2.3 mph /  3.7 km/h 96 % 0.00 in /  0 mm
07:32 64.0 °F /  17.8 °C 62.8 °F /  17.1 °C 30.18 in /  1021.9 hPa ENE 2.8 mph /  4.5 km/h 4.6 mph /  7.4 km/h 96 % 0.00 in /  0 mm
07:37 64.1 °F /  17.8 °C 62.9 °F /  17.2 °C 30.19 in /  1022.2 hPa NE 3.8 mph /  6.1 km/h 5.0 mph /  8 km/h 96 % 0.00 in /  0 mm
07:42 64.1 °F /  17.8 °C 62.9 °F /  17.2 °C 30.18 in /  1021.9 hPa ENE 3.7 mph /  6 km/h 5.8 mph /  9.3 km/h 96 % 0.00 in /  0 mm
07:47 64.1 °F /  17.8 °C 62.9 °F /  17.2 °C 30.18 in /  1021.9 hPa ENE 2.0 mph /  3.2 km/h 4.6 mph /  7.4 km/h 96 % 0.00 in /  0 mm
07:52 64.2 °F /  17.9 °C 63.0 °F /  17.2 °C 30.19 in /  1022.2 hPa ENE 3.2 mph /  5.1 km/h 8.1 mph /  13 km/h 96 % 0.00 in /  0 mm
07:57 64.2 °F /  17.9 °C 63.0 °F /  17.2 °C 30.18 in /  1021.9 hPa ENE 4.3 mph /  6.9 km/h 8.1 mph /  13 km/h 96 % 0.00 in /  0 mm
08:02 64.2 °F /  17.9 °C 63.0 °F /  17.2 °C 30.18 in /  1021.9 hPa East 2.5 mph /  4 km/h 5.0 mph /  8 km/h 96 % 0.00 in /  0 mm
08:07 64.2 °F /  17.9 °C 63.0 °F /  17.2 °C 30.19 in /  1022.2 hPa ENE 4.9 mph /  7.9 km/h 6.9 mph /  11.1 km/h 96 % 0.00 in /  0 mm
08:12 64.2 °F /  17.9 °C 63.0 °F /  17.2 °C 30.18 in /  1021.9 hPa ENE 4.3 mph /  6.9 km/h 9.2 mph /  14.8 km/h 96 % 0.00 in /  0 mm
08:17 64.2 °F /  17.9 °C 63.0 °F /  17.2 °C 30.19 in /  1022.2 hPa ENE 2.7 mph /  4.3 km/h 4.6 mph /  7.4 km/h 96 % 0.00 in /  0 mm
08:22 64.2 °F /  17.9 °C 63.0 °F /  17.2 °C 30.18 in /  1021.9 hPa NE 5.2 mph /  8.4 km/h 8.1 mph /  13 km/h 96 % 0.00 in /  0 mm
08:27 64.2 °F /  17.9 °C 63.0 °F /  17.2 °C 30.19 in /  1022.2 hPa ENE 2.1 mph /  3.4 km/h 4.6 mph /  7.4 km/h 96 % 0.00 in /  0 mm
08:32 64.2 °F /  17.9 °C 63.0 °F /  17.2 °C 30.18 in /  1021.9 hPa ENE 3.9 mph /  6.3 km/h 5.8 mph /  9.3 km/h 96 % 0.00 in /  0 mm
08:37 64.2 °F /  17.9 °C 63.0 °F /  17.2 °C 30.18 in /  1021.9 hPa NE 2.5 mph /  4 km/h 4.6 mph /  7.4 km/h 96 % 0.00 in /  0 mm
08:42 64.2 °F /  17.9 °C 63.0 °F /  17.2 °C 30.19 in /  1022.2 hPa ENE 4.0 mph /  6.4 km/h 8.1 mph /  13 km/h 96 % 0.00 in /  0 mm
08:47 64.1 °F /  17.8 °C 62.9 °F /  17.2 °C 30.18 in /  1021.9 hPa NE 3.3 mph /  5.3 km/h 9.2 mph /  14.8 km/h 96 % 0.00 in /  0 mm
08:52 64.1 °F /  17.8 °C 62.9 °F /  17.2 °C 30.18 in /  1021.9 hPa ENE 2.1 mph /  3.4 km/h 4.6 mph /  7.4 km/h 96 % 0.00 in /  0 mm
08:57 64.1 °F /  17.8 °C 62.9 °F /  17.2 °C 30.18 in /  1021.9 hPa NE 3.9 mph /  6.3 km/h 6.0 mph /  9.7 km/h 96 % 0.00 in /  0 mm
09:02 64.0 °F /  17.8 °C 62.5 °F /  16.9 °C 30.18 in /  1021.9 hPa NE 3.5 mph /  5.6 km/h 6.9 mph /  11.1 km/h 95 % 0.00 in /  0 mm
09:07 64.0 °F /  17.8 °C 62.5 °F /  16.9 °C 30.18 in /  1021.9 hPa ENE 3.7 mph /  6 km/h 9.2 mph /  14.8 km/h 95 % 0.00 in /  0 mm
09:12 64.0 °F /  17.8 °C 62.5 °F /  16.9 °C 30.19 in /  1022.2 hPa NE 2.5 mph /  4 km/h 6.9 mph /  11.1 km/h 95 % 0.00 in /  0 mm
09:17 64.0 °F /  17.8 °C 62.5 °F /  16.9 °C 30.19 in /  1022.2 hPa ENE 3.1 mph /  5 km/h 3.5 mph /  5.6 km/h 95 % 0.00 in /  0 mm
09:22 63.9 °F /  17.7 °C 62.4 °F /  16.9 °C 30.19 in /  1022.2 hPa ENE 3.8 mph /  6.1 km/h 8.1 mph /  13 km/h 95 % 0.00 in /  0 mm
09:27 63.9 °F /  17.7 °C 62.4 °F /  16.9 °C 30.19 in /  1022.2 hPa NE 2.9 mph /  4.7 km/h 7.0 mph /  11.3 km/h 95 % 0.00 in /  0 mm
09:32 63.8 °F /  17.7 °C 62.3 °F /  16.8 °C 30.19 in /  1022.2 hPa NE 2.2 mph /  3.5 km/h 4.6 mph /  7.4 km/h 95 % 0.00 in /  0 mm
09:37 63.9 °F /  17.7 °C 62.4 °F /  16.9 °C 30.18 in /  1021.9 hPa ENE 2.4 mph /  3.9 km/h 5.8 mph /  9.3 km/h 95 % 0.00 in /  0 mm
09:43 63.9 °F /  17.7 °C 62.4 °F /  16.9 °C 30.18 in /  1021.9 hPa ENE 2.9 mph /  4.7 km/h 6.9 mph /  11.1 km/h 95 % 0.00 in /  0 mm
09:48 63.9 °F /  17.7 °C 62.4 °F /  16.9 °C 30.18 in /  1021.9 hPa ENE 3.1 mph /  5 km/h 6.9 mph /  11.1 km/h 95 % 0.00 in /  0 mm
09:53 63.9 °F /  17.7 °C 62.4 °F /  16.9 °C 30.18 in /  1021.9 hPa ENE 3.2 mph /  5.1 km/h 4.6 mph /  7.4 km/h 95 % 0.00 in /  0 mm
09:58 64.0 °F /  17.8 °C 62.5 °F /  16.9 °C 30.18 in /  1021.9 hPa East 2.6 mph /  4.2 km/h 5.0 mph /  8 km/h 95 % 0.00 in /  0 mm
10:03 64.1 °F /  17.8 °C 62.6 °F /  17 °C 30.18 in /  1021.9 hPa ENE 1.6 mph /  2.6 km/h 3.5 mph /  5.6 km/h 95 % 0.00 in /  0 mm
10:08 64.1 °F /  17.8 °C 62.6 °F /  17 °C 30.18 in /  1021.9 hPa ENE 4.2 mph /  6.8 km/h 8.1 mph /  13 km/h 95 % 0.00 in /  0 mm
10:13 64.1 °F /  17.8 °C 62.6 °F /  17 °C 30.18 in /  1021.9 hPa NE 4.0 mph /  6.4 km/h 9.2 mph /  14.8 km/h 95 % 0.00 in /  0 mm
10:18 64.1 °F /  17.8 °C 62.6 °F /  17 °C 30.18 in /  1021.9 hPa ENE 2.3 mph /  3.7 km/h 3.5 mph /  5.6 km/h 95 % 0.00 in /  0 mm
10:23 64.1 °F /  17.8 °C 62.6 °F /  17 °C 30.18 in /  1021.9 hPa ENE 3.6 mph /  5.8 km/h 6.9 mph /  11.1 km/h 95 % 0.00 in /  0 mm
10:28 64.1 °F /  17.8 °C 62.9 °F /  17.2 °C 30.18 in /  1021.9 hPa East 2.7 mph /  4.3 km/h 5.0 mph /  8 km/h 96 % 0.00 in /  0 mm
10:33 64.2 °F /  17.9 °C 63.0 °F /  17.2 °C 30.21 in /  1022.9 hPa ENE 3.3 mph /  5.3 km/h 6.9 mph /  11.1 km/h 96 % 0.00 in /  0 mm
10:38 64.2 °F /  17.9 °C 63.0 °F /  17.2 °C 30.21 in /  1022.9 hPa ENE 4.8 mph /  7.7 km/h 8.1 mph /  13 km/h 96 % 0.00 in /  0 mm
10:43 64.2 °F /  17.9 °C 63.0 °F /  17.2 °C 30.19 in /  1022.2 hPa NE 4.0 mph /  6.4 km/h 6.9 mph /  11.1 km/h 96 % 0.00 in /  0 mm
10:48 64.3 °F /  17.9 °C 63.1 °F /  17.3 °C 30.16 in /  1021.2 hPa NE 2.2 mph /  3.5 km/h 3.5 mph /  5.6 km/h 96 % 0.00 in /  0 mm
10:53 64.4 °F /  18 °C 63.2 °F /  17.3 °C 30.17 in /  1021.6 hPa ENE 1.9 mph /  3.1 km/h 3.5 mph /  5.6 km/h 96 % 0.00 in /  0 mm
10:58 64.5 °F /  18.1 °C 63.3 °F /  17.4 °C 30.21 in /  1022.9 hPa East 1.3 mph /  2.1 km/h 5.0 mph /  8 km/h 96 % 0.00 in /  0 mm
11:04 64.5 °F /  18.1 °C 63.3 °F /  17.4 °C 30.16 in /  1021.2 hPa NNW 2.0 mph /  3.2 km/h 4.6 mph /  7.4 km/h 96 % 0.00 in /  0 mm
11:09 64.6 °F /  18.1 °C 63.4 °F /  17.4 °C 30.15 in /  1020.9 hPa NE 1.7 mph /  2.7 km/h 3.5 mph /  5.6 km/h 96 % 0.00 in /  0 mm
11:14 64.8 °F /  18.2 °C 63.6 °F /  17.6 °C 30.15 in /  1020.9 hPa ENE 3.2 mph /  5.1 km/h 6.9 mph /  11.1 km/h 96 % 0.00 in /  0 mm
11:19 64.9 °F /  18.3 °C 63.7 °F /  17.6 °C 30.21 in /  1022.9 hPa NE 2.0 mph /  3.2 km/h 8.1 mph /  13 km/h 96 % 0.00 in /  0 mm
11:24 65.0 °F /  18.3 °C 63.8 °F /  17.7 °C 30.22 in /  1023.2 hPa East 3.7 mph /  6 km/h 6.9 mph /  11.1 km/h 96 % 0.00 in /  0 mm
11:29 65.1 °F /  18.4 °C 64.2 °F /  17.9 °C 30.22 in /  1023.2 hPa ENE 1.7 mph /  2.7 km/h 3.5 mph /  5.6 km/h 97 % 0.00 in /  0 mm
11:34 65.2 °F /  18.4 °C 64.3 °F /  17.9 °C 30.15 in /  1020.9 hPa ENE 1.1 mph /  1.8 km/h 5.8 mph /  9.3 km/h 97 % 0.00 in /  0 mm
11:39 65.2 °F /  18.4 °C 64.3 °F /  17.9 °C 30.22 in /  1023.2 hPa ENE 1.7 mph /  2.7 km/h 3.5 mph /  5.6 km/h 97 % 0.00 in /  0 mm
11:44 65.2 °F /  18.4 °C 64.0 °F /  17.8 °C 30.22 in /  1023.2 hPa ENE 1.6 mph /  2.6 km/h 3.5 mph /  5.6 km/h 96 % 0.00 in /  0 mm
11:49 65.3 °F /  18.5 °C 64.1 °F /  17.8 °C 30.22 in /  1023.2 hPa ENE 3.1 mph /  5 km/h 5.0 mph /  8 km/h 96 % 0.00 in /  0 mm
11:54 65.3 °F /  18.5 °C 64.1 °F /  17.8 °C 30.15 in /  1020.9 hPa ENE 4.5 mph /  7.2 km/h 9.2 mph /  14.8 km/h 96 % 0.00 in /  0 mm
11:59 65.3 °F /  18.5 °C 64.1 °F /  17.8 °C 30.18 in /  1021.9 hPa NE 2.9 mph /  4.7 km/h 4.6 mph /  7.4 km/h 96 % 0.00 in /  0 mm
12:04 65.5 °F /  18.6 °C 64.3 °F /  17.9 °C 30.15 in /  1020.9 hPa ENE 3.7 mph /  6 km/h 6.9 mph /  11.1 km/h 96 % 0.00 in /  0 mm
12:09 65.6 °F /  18.7 °C 64.4 °F /  18 °C 30.15 in /  1020.9 hPa NE 2.9 mph /  4.7 km/h 6.9 mph /  11.1 km/h 96 % 0.00 in /  0 mm
12:14 65.6 °F /  18.7 °C 64.4 °F /  18 °C 30.15 in /  1020.9 hPa ENE 3.2 mph /  5.1 km/h 4.0 mph /  6.4 km/h 96 % 0.00 in /  0 mm
12:19 65.7 °F /  18.7 °C 64.5 °F /  18.1 °C 30.15 in /  1020.9 hPa ENE 3.7 mph /  6 km/h 8.1 mph /  13 km/h 96 % 0.00 in /  0 mm
12:25 65.8 °F /  18.8 °C 64.6 °F /  18.1 °C 30.15 in /  1020.9 hPa ENE 1.8 mph /  2.9 km/h 4.6 mph /  7.4 km/h 96 % 0.00 in /  0 mm
12:30 66.0 °F /  18.9 °C 64.8 °F /  18.2 °C 30.20 in /  1022.6 hPa NE 0.7 mph /  1.1 km/h 3.0 mph /  4.8 km/h 96 % 0.00 in /  0 mm
12:35 66.1 °F /  18.9 °C 64.9 °F /  18.3 °C 30.14 in /  1020.5 hPa ENE 1.9 mph /  3.1 km/h 4.6 mph /  7.4 km/h 96 % 0.00 in /  0 mm
12:40 66.2 °F /  19 °C 65.0 °F /  18.3 °C 30.19 in /  1022.2 hPa NE 0.3 mph /  0.5 km/h 3.5 mph /  5.6 km/h 96 % 0.00 in /  0 mm
12:45 66.4 °F /  19.1 °C 65.2 °F /  18.4 °C 30.14 in /  1020.5 hPa ENE 1.9 mph /  3.1 km/h 6.9 mph /  11.1 km/h 96 % 0.00 in /  0 mm
12:50 66.5 °F /  19.2 °C 65.0 °F /  18.3 °C 30.14 in /  1020.5 hPa ENE 1.3 mph /  2.1 km/h 4.6 mph /  7.4 km/h 95 % 0.00 in /  0 mm
12:55 66.8 °F /  19.3 °C 65.3 °F /  18.5 °C 30.13 in /  1020.2 hPa ENE 1.8 mph /  2.9 km/h 3.5 mph /  5.6 km/h 95 % 0.00 in /  0 mm
13:00 67.2 °F /  19.6 °C 66.0 °F /  18.9 °C 30.13 in /  1020.2 hPa ENE 0.2 mph /  0.3 km/h 2.3 mph /  3.7 km/h 96 % 0.00 in /  0 mm
13:05 67.7 °F /  19.8 °C 66.2 °F /  19 °C 30.13 in /  1020.2 hPa ENE 2.0 mph /  3.2 km/h 4.6 mph /  7.4 km/h 95 % 0.00 in /  0 mm
13:10 68.1 °F /  20.1 °C 66.6 °F /  19.2 °C 30.13 in /  1020.2 hPa ENE 1.0 mph /  1.6 km/h 5.8 mph /  9.3 km/h 95 % 0.00 in /  0 mm
13:15 68.4 °F /  20.2 °C 66.6 °F /  19.2 °C 30.13 in /  1020.2 hPa North 1.4 mph /  2.3 km/h 3.5 mph /  5.6 km/h 94 % 0.00 in /  0 mm
13:20 68.7 °F /  20.4 °C 66.3 °F /  19.1 °C 30.16 in /  1021.2 hPa NE 2.4 mph /  3.9 km/h 3.5 mph /  5.6 km/h 92 % 0.00 in /  0 mm
13:25 68.8 °F /  20.4 °C 66.1 °F /  18.9 °C 30.15 in /  1020.9 hPa NW 1.0 mph /  1.6 km/h 2.3 mph /  3.7 km/h 91 % 0.00 in /  0 mm
13:30 69.2 °F /  20.7 °C 66.1 °F /  18.9 °C 30.13 in /  1020.2 hPa NNE 1.4 mph /  2.3 km/h 4.6 mph /  7.4 km/h 90 % 0.00 in /  0 mm
13:35 69.6 °F /  20.9 °C 66.9 °F /  19.4 °C 30.16 in /  1021.2 hPa NNE 0.4 mph /  0.6 km/h 3.5 mph /  5.6 km/h 91 % 0.00 in /  0 mm
13:40 70.0 °F /  21.1 °C 66.9 °F /  19.4 °C 30.11 in /  1019.5 hPa ENE 0.8 mph /  1.3 km/h 4.0 mph /  6.4 km/h 90 % 0.00 in /  0 mm
13:45 70.1 °F /  21.2 °C 66.4 °F /  19.1 °C 30.11 in /  1019.5 hPa ENE 0.8 mph /  1.3 km/h 1.2 mph /  1.9 km/h 88 % 0.00 in /  0 mm
13:50 70.2 °F /  21.2 °C 66.1 °F /  18.9 °C 30.10 in /  1019.2 hPa Calm   1.2 mph /  1.9 km/h 87 % 0.00 in /  0 mm
13:55 70.8 °F /  21.6 °C 67.4 °F /  19.7 °C 30.11 in /  1019.5 hPa ENE 0.2 mph /  0.3 km/h 1.2 mph /  1.9 km/h 89 % 0.00 in /  0 mm
14:00 71.4 °F /  21.9 °C 67.7 °F /  19.8 °C 30.10 in /  1019.2 hPa Calm   1.2 mph /  1.9 km/h 88 % 0.00 in /  0 mm
14:06 71.7 °F /  22.1 °C 67.3 °F /  19.6 °C 30.10 in /  1019.2 hPa ENE 1.0 mph /  1.6 km/h 3.0 mph /  4.8 km/h 86 % 0.00 in /  0 mm
14:11 72.0 °F /  22.2 °C 67.2 °F /  19.6 °C 30.10 in /  1019.2 hPa NE 0.2 mph /  0.3 km/h 2.3 mph /  3.7 km/h 85 % 0.00 in /  0 mm
14:16 72.1 °F /  22.3 °C 66.6 °F /  19.2 °C 30.11 in /  1019.5 hPa NE 1.0 mph /  1.6 km/h 4.0 mph /  6.4 km/h 83 % 0.00 in /  0 mm
14:21 72.2 °F /  22.3 °C 67.1 °F /  19.5 °C 30.10 in /  1019.2 hPa ENE 0.2 mph /  0.3 km/h 1.2 mph /  1.9 km/h 84 % 0.00 in /  0 mm
14:26 72.3 °F /  22.4 °C 67.2 °F /  19.6 °C 30.13 in /  1020.2 hPa ENE 1.0 mph /  1.6 km/h 3.0 mph /  4.8 km/h 84 % 0.00 in /  0 mm
14:31 72.4 °F /  22.4 °C 66.9 °F /  19.4 °C 30.10 in /  1019.2 hPa NE 0.5 mph /  0.8 km/h 3.5 mph /  5.6 km/h 83 % 0.00 in /  0 mm
14:36 72.5 °F /  22.5 °C 67.0 °F /  19.4 °C 30.10 in /  1019.2 hPa NE 1.0 mph /  1.6 km/h 3.0 mph /  4.8 km/h 83 % 0.00 in /  0 mm
14:41 72.5 °F /  22.5 °C 66.7 °F /  19.3 °C 30.09 in /  1018.8 hPa ENE 1.0 mph /  1.6 km/h 3.0 mph /  4.8 km/h 82 % 0.00 in /  0 mm
14:46 72.5 °F /  22.5 °C 66.7 °F /  19.3 °C 30.09 in /  1018.8 hPa Calm   2.0 mph /  3.2 km/h 82 % 0.00 in /  0 mm
14:51 72.5 °F /  22.5 °C 66.7 °F /  19.3 °C 30.14 in /  1020.5 hPa ENE 1.0 mph /  1.6 km/h 3.0 mph /  4.8 km/h 82 % 0.00 in /  0 mm
14:56 72.5 °F /  22.5 °C 67.0 °F /  19.4 °C 29.99 in /  1015.5 hPa Calm   3.0 mph /  4.8 km/h 83 % 0.00 in /  0 mm
15:01 72.6 °F /  22.6 °C 67.1 °F /  19.5 °C 30.04 in /  1017.2 hPa NE 0.6 mph /  1 km/h 2.3 mph /  3.7 km/h 83 % 0.00 in /  0 mm
15:06 72.6 °F /  22.6 °C 66.8 °F /  19.3 °C 30.03 in /  1016.8 hPa NE 1.0 mph /  1.6 km/h 3.0 mph /  4.8 km/h 82 % 0.00 in /  0 mm
15:11 72.5 °F /  22.5 °C 66.7 °F /  19.3 °C 30.07 in /  1018.2 hPa Calm   2.0 mph /  3.2 km/h 82 % 0.00 in /  0 mm
15:16 72.5 °F /  22.5 °C 66.7 °F /  19.3 °C 30.08 in /  1018.5 hPa Calm   3.0 mph /  4.8 km/h 82 % 0.00 in /  0 mm
15:21 72.4 °F /  22.4 °C 66.6 °F /  19.2 °C 30.00 in /  1015.8 hPa NNE 1.0 mph /  1.6 km/h 3.0 mph /  4.8 km/h 82 % 0.00 in /  0 mm
15:26 72.4 °F /  22.4 °C 66.6 °F /  19.2 °C 30.10 in /  1019.2 hPa Calm   1.2 mph /  1.9 km/h 82 % 0.00 in /  0 mm
15:31 72.3 °F /  22.4 °C 66.5 °F /  19.2 °C 30.06 in /  1017.8 hPa Calm     82 % 0.01 in /  0.25 mm
15:36 72.1 °F /  22.3 °C 66.3 °F /  19.1 °C 30.04 in /  1017.2 hPa NNE 1.4 mph /  2.3 km/h 3.5 mph /  5.6 km/h 82 % 0.01 in /  0.25 mm
15:41 72.0 °F /  22.2 °C 66.2 °F /  19 °C 30.02 in /  1016.5 hPa Calm     82 % 0.01 in /  0.25 mm
15:46 71.7 °F /  22.1 °C 65.9 °F /  18.8 °C 30.06 in /  1017.8 hPa NE 0.1 mph /  0.2 km/h 1.2 mph /  1.9 km/h 82 % 0.01 in /  0.25 mm
15:51 71.5 °F /  21.9 °C 65.7 °F /  18.7 °C 30.03 in /  1016.8 hPa Calm     82 % 0.01 in /  0.25 mm
15:56 71.4 °F /  21.9 °C 65.6 °F /  18.7 °C 30.05 in /  1017.5 hPa NE 0.1 mph /  0.2 km/h 1.2 mph /  1.9 km/h 82 % 0.01 in /  0.25 mm
16:01 71.3 °F /  21.8 °C 65.5 °F /  18.6 °C 30.05 in /  1017.5 hPa NE 0.1 mph /  0.2 km/h 2.3 mph /  3.7 km/h 82 % 0.01 in /  0.25 mm
16:06 71.2 °F /  21.8 °C 66.1 °F /  18.9 °C 30.05 in /  1017.5 hPa North 1.3 mph /  2.1 km/h 4.0 mph /  6.4 km/h 84 % 0.01 in /  0.25 mm
16:11 71.0 °F /  21.7 °C 65.9 °F /  18.8 °C 30.08 in /  1018.5 hPa NNE 0.2 mph /  0.3 km/h 1.2 mph /  1.9 km/h 84 % 0.01 in /  0.25 mm
16:16 71.0 °F /  21.7 °C 65.9 °F /  18.8 °C 30.06 in /  1017.8 hPa NNE 0.1 mph /  0.2 km/h 1.2 mph /  1.9 km/h 84 % 0.01 in /  0.25 mm
16:21 71.0 °F /  21.7 °C 65.9 °F /  18.8 °C 30.09 in /  1018.8 hPa NNE 0.6 mph /  1 km/h 2.0 mph /  3.2 km/h 84 % 0.01 in /  0.25 mm
16:26 70.9 °F /  21.6 °C 65.8 °F /  18.8 °C 30.09 in /  1018.8 hPa NNE 0.4 mph /  0.6 km/h 1.2 mph /  1.9 km/h 84 % 0.01 in /  0.25 mm
16:31 70.9 °F /  21.6 °C 65.8 °F /  18.8 °C 30.09 in /  1018.8 hPa Calm   1.2 mph /  1.9 km/h 84 % 0.00 in /  0 mm
16:36 70.8 °F /  21.6 °C 66.1 °F /  18.9 °C 30.08 in /  1018.5 hPa NNE 0.1 mph /  0.2 km/h 1.0 mph /  1.6 km/h 85 % 0.00 in /  0 mm
16:41 70.8 °F /  21.6 °C 65.7 °F /  18.7 °C 30.08 in /  1018.5 hPa NNE 0.6 mph /  1 km/h 2.3 mph /  3.7 km/h 84 % 0.00 in /  0 mm
16:46 70.8 °F /  21.6 °C 65.7 °F /  18.7 °C 30.09 in /  1018.8 hPa Calm     84 % 0.00 in /  0 mm
16:51 70.7 °F /  21.5 °C 65.3 °F /  18.5 °C 30.09 in /  1018.8 hPa Calm     83 % 0.00 in /  0 mm
16:56 70.6 °F /  21.4 °C 65.5 °F /  18.6 °C 30.08 in /  1018.5 hPa Calm     84 % 0.00 in /  0 mm
17:01 70.6 °F /  21.4 °C 65.9 °F /  18.8 °C 30.08 in /  1018.5 hPa Calm     85 % 0.00 in /  0 mm
17:06 70.4 °F /  21.3 °C 65.3 °F /  18.5 °C 30.08 in /  1018.5 hPa Calm     84 % 0.00 in /  0 mm
17:11 70.4 °F /  21.3 °C 65.7 °F /  18.7 °C 30.10 in /  1019.2 hPa Calm     85 % 0.00 in /  0 mm
17:16 70.3 °F /  21.3 °C 65.6 °F /  18.7 °C 30.07 in /  1018.2 hPa Calm     85 % 0.00 in /  0 mm
17:21 70.3 °F /  21.3 °C 65.6 °F /  18.7 °C 30.08 in /  1018.5 hPa Calm     85 % 0.00 in /  0 mm
17:27 70.2 °F /  21.2 °C 65.8 °F /  18.8 °C 30.08 in /  1018.5 hPa Calm     86 % 0.00 in /  0 mm
17:29 70.2 °F /  21.2 °C 65.8 °F /  18.8 °C 30.08 in /  1018.5 hPa Calm     86 % 0.00 in /  0 mm
17:34 70.1 °F /  21.2 °C 65.7 °F /  18.7 °C 30.08 in /  1018.5 hPa Calm     86 % 0.00 in /  0 mm
17:39 70.0 °F /  21.1 °C 65.6 °F /  18.7 °C 30.08 in /  1018.5 hPa Calm     86 % 0.00 in /  0 mm
17:44 70.0 °F /  21.1 °C 65.6 °F /  18.7 °C 30.08 in /  1018.5 hPa Calm     86 % 0.00 in /  0 mm
17:49 69.9 °F /  21.1 °C 65.5 °F /  18.6 °C 30.08 in /  1018.5 hPa Calm     86 % 0.00 in /  0 mm
17:50 69.9 °F /  21.1 °C 65.5 °F /  18.6 °C 30.08 in /  1018.5 hPa Calm     86 % 0.00 in /  0 mm
17:55 69.8 °F /  21 °C 65.4 °F /  18.6 °C 30.08 in /  1018.5 hPa Calm     86 % 0.00 in /  0 mm
18:00 69.8 °F /  21 °C 65.4 °F /  18.6 °C 30.09 in /  1018.8 hPa Calm     86 % 0.00 in /  0 mm
18:05 69.7 °F /  20.9 °C 65.3 °F /  18.5 °C 30.09 in /  1018.8 hPa Calm     86 % 0.00 in /  0 mm
18:10 69.5 °F /  20.8 °C 65.1 °F /  18.4 °C 30.09 in /  1018.8 hPa Calm     86 % 0.00 in /  0 mm
18:15 69.4 °F /  20.8 °C 65.4 °F /  18.6 °C 30.10 in /  1019.2 hPa Calm     87 % 0.00 in /  0 mm
18:20 69.2 °F /  20.7 °C 65.2 °F /  18.4 °C 30.09 in /  1018.8 hPa Calm     87 % 0.00 in /  0 mm
18:25 69.0 °F /  20.6 °C 65.0 °F /  18.3 °C 30.10 in /  1019.2 hPa Calm     87 % 0.00 in /  0 mm
18:30 68.8 °F /  20.4 °C 64.8 °F /  18.2 °C 30.09 in /  1018.8 hPa Calm     87 % 0.00 in /  0 mm
18:35 68.6 °F /  20.3 °C 64.6 °F /  18.1 °C 30.10 in /  1019.2 hPa Calm     87 % 0.00 in /  0 mm
18:40 68.4 °F /  20.2 °C 64.4 °F /  18 °C 30.14 in /  1020.5 hPa Calm     87 % 0.00 in /  0 mm
18:45 68.2 °F /  20.1 °C 64.5 °F /  18.1 °C 30.11 in /  1019.5 hPa Calm     88 % 0.00 in /  0 mm
18:50 68.0 °F /  20 °C 64.3 °F /  17.9 °C 30.10 in /  1019.2 hPa Calm     88 % 0.00 in /  0 mm
18:55 67.7 °F /  19.8 °C 64.0 °F /  17.8 °C 30.10 in /  1019.2 hPa Calm     88 % 0.00 in /  0 mm
19:00 67.5 °F /  19.7 °C 64.1 °F /  17.8 °C 30.11 in /  1019.5 hPa Calm     89 % 0.00 in /  0 mm
19:05 67.3 °F /  19.6 °C 63.9 °F /  17.7 °C 30.11 in /  1019.5 hPa Calm     89 % 0.00 in /  0 mm
19:10 67.1 °F /  19.5 °C 63.7 °F /  17.6 °C 30.11 in /  1019.5 hPa Calm     89 % 0.00 in /  0 mm
19:15 66.9 °F /  19.4 °C 63.6 °F /  17.6 °C 30.11 in /  1019.5 hPa Calm     89 % 0.00 in /  0 mm
19:20 66.7 °F /  19.3 °C 63.4 °F /  17.4 °C 30.11 in /  1019.5 hPa Calm     89 % 0.00 in /  0 mm
19:26 66.6 °F /  19.2 °C 63.3 °F /  17.4 °C 30.11 in /  1019.5 hPa Calm     89 % 0.00 in /  0 mm
19:31 66.5 °F /  19.2 °C 63.2 °F /  17.3 °C 30.11 in /  1019.5 hPa Calm     89 % 0.00 in /  0 mm
19:36 66.3 °F /  19.1 °C 63.3 °F /  17.4 °C 30.11 in /  1019.5 hPa Calm     90 % 0.00 in /  0 mm
19:41 66.2 °F /  19 °C 63.2 °F /  17.3 °C 30.11 in /  1019.5 hPa Calm     90 % 0.00 in /  0 mm
19:46 66.1 °F /  18.9 °C 63.1 °F /  17.3 °C 30.12 in /  1019.9 hPa Calm     90 % 0.00 in /  0 mm
19:51 66.1 °F /  18.9 °C 63.1 °F /  17.3 °C 30.12 in /  1019.9 hPa Calm   1.0 mph /  1.6 km/h 90 % 0.00 in /  0 mm
19:56 66.1 °F /  18.9 °C 63.4 °F /  17.4 °C 30.11 in /  1019.5 hPa Calm     91 % 0.00 in /  0 mm
20:01 66.0 °F /  18.9 °C 63.3 °F /  17.4 °C 30.12 in /  1019.9 hPa Calm     91 % 0.00 in /  0 mm
20:06 66.0 °F /  18.9 °C 63.6 °F /  17.6 °C 30.12 in /  1019.9 hPa Calm     92 % 0.00 in /  0 mm
20:11 66.0 °F /  18.9 °C 63.6 °F /  17.6 °C 30.16 in /  1021.2 hPa Calm   1.0 mph /  1.6 km/h 92 % 0.00 in /  0 mm
20:16 66.0 °F /  18.9 °C 63.6 °F /  17.6 °C 30.12 in /  1019.9 hPa Calm     92 % 0.00 in /  0 mm
20:21 66.0 °F /  18.9 °C 63.6 °F /  17.6 °C 30.12 in /  1019.9 hPa Calm     92 % 0.00 in /  0 mm
20:26 65.9 °F /  18.8 °C 63.5 °F /  17.5 °C 30.12 in /  1019.9 hPa Calm     92 % 0.00 in /  0 mm
20:31 65.9 °F /  18.8 °C 63.5 °F /  17.5 °C 30.16 in /  1021.2 hPa Calm     92 % 0.00 in /  0 mm
20:36 65.9 °F /  18.8 °C 63.5 °F /  17.5 °C 30.12 in /  1019.9 hPa Calm     92 % 0.00 in /  0 mm
20:41 65.9 °F /  18.8 °C 63.8 °F /  17.7 °C 30.12 in /  1019.9 hPa Calm     93 % 0.00 in /  0 mm
20:46 65.9 °F /  18.8 °C 63.8 °F /  17.7 °C 30.12 in /  1019.9 hPa Calm     93 % 0.00 in /  0 mm
20:51 65.9 °F /  18.8 °C 63.8 °F /  17.7 °C 30.15 in /  1020.9 hPa Calm     93 % 0.00 in /  0 mm
20:56 65.9 °F /  18.8 °C 63.8 °F /  17.7 °C 30.16 in /  1021.2 hPa Calm   1.0 mph /  1.6 km/h 93 % 0.00 in /  0 mm
21:01 65.9 °F /  18.8 °C 63.8 °F /  17.7 °C 30.16 in /  1021.2 hPa Calm     93 % 0.00 in /  0 mm
21:06 65.9 °F /  18.8 °C 63.8 °F /  17.7 °C 30.15 in /  1020.9 hPa Calm     93 % 0.00 in /  0 mm
21:11 65.9 °F /  18.8 °C 63.8 °F /  17.7 °C 30.15 in /  1020.9 hPa Calm     93 % 0.00 in /  0 mm
21:16 65.9 °F /  18.8 °C 63.8 °F /  17.7 °C 30.16 in /  1021.2 hPa Calm     93 % 0.00 in /  0 mm
21:21 65.9 °F /  18.8 °C 63.8 °F /  17.7 °C 30.15 in /  1020.9 hPa Calm     93 % 0.00 in /  0 mm
21:26 65.9 °F /  18.8 °C 63.8 °F /  17.7 °C 30.16 in /  1021.2 hPa Calm     93 % 0.00 in /  0 mm
21:31 65.9 °F /  18.8 °C 63.8 °F /  17.7 °C 30.16 in /  1021.2 hPa Calm     93 % 0.00 in /  0 mm
21:36 65.9 °F /  18.8 °C 63.8 °F /  17.7 °C 30.15 in /  1020.9 hPa Calm     93 % 0.00 in /  0 mm
21:41 65.9 °F /  18.8 °C 63.8 °F /  17.7 °C 30.15 in /  1020.9 hPa Calm     93 % 0.00 in /  0 mm
21:46 65.9 °F /  18.8 °C 63.8 °F /  17.7 °C 30.15 in /  1020.9 hPa Calm     93 % 0.00 in /  0 mm
21:51 65.9 °F /  18.8 °C 63.8 °F /  17.7 °C 30.15 in /  1020.9 hPa Calm     93 % 0.00 in /  0 mm
21:56 66.0 °F /  18.9 °C 64.2 °F /  17.9 °C 30.15 in /  1020.9 hPa Calm     94 % 0.00 in /  0 mm
22:01 66.1 °F /  18.9 °C 64.3 °F /  17.9 °C 30.15 in /  1020.9 hPa Calm     94 % 0.00 in /  0 mm
22:06 66.1 °F /  18.9 °C 64.3 °F /  17.9 °C 30.15 in /  1020.9 hPa Calm     94 % 0.00 in /  0 mm
22:11 66.1 °F /  18.9 °C 64.3 °F /  17.9 °C 30.15 in /  1020.9 hPa Calm     94 % 0.00 in /  0 mm
22:16 66.2 °F /  19 °C 64.4 °F /  18 °C 30.15 in /  1020.9 hPa Calm     94 % 0.00 in /  0 mm
22:21 66.3 °F /  19.1 °C 64.5 °F /  18.1 °C 30.15 in /  1020.9 hPa Calm     94 % 0.00 in /  0 mm
22:26 66.3 °F /  19.1 °C 64.8 °F /  18.2 °C 30.15 in /  1020.9 hPa Calm     95 % 0.00 in /  0 mm
22:31 66.4 °F /  19.1 °C 64.9 °F /  18.3 °C 30.15 in /  1020.9 hPa Calm     95 % 0.00 in /  0 mm
22:36 66.4 °F /  19.1 °C 64.9 °F /  18.3 °C 30.15 in /  1020.9 hPa Calm     95 % 0.00 in /  0 mm
22:41 66.4 °F /  19.1 °C 64.9 °F /  18.3 °C 30.15 in /  1020.9 hPa NNE 0.1 mph /  0.2 km/h 1.2 mph /  1.9 km/h 95 % 0.00 in /  0 mm
22:46 66.5 °F /  19.2 °C 65.0 °F /  18.3 °C 30.14 in /  1020.5 hPa Calm     95 % 0.00 in /  0 mm
22:52 66.5 °F /  19.2 °C 65.0 °F /  18.3 °C 30.14 in /  1020.5 hPa Calm   1.2 mph /  1.9 km/h 95 % 0.00 in /  0 mm
22:57 66.6 °F /  19.2 °C 65.1 °F /  18.4 °C 30.12 in /  1019.9 hPa Calm   1.2 mph /  1.9 km/h 95 % 0.00 in /  0 mm
23:02 66.6 °F /  19.2 °C 65.1 °F /  18.4 °C 30.14 in /  1020.5 hPa Calm     95 % 0.00 in /  0 mm
23:07 66.7 °F /  19.3 °C 65.2 °F /  18.4 °C 30.12 in /  1019.9 hPa Calm     95 % 0.00 in /  0 mm
23:12 66.7 °F /  19.3 °C 65.2 °F /  18.4 °C 30.11 in /  1019.5 hPa Calm     95 % 0.00 in /  0 mm
23:17 66.7 °F /  19.3 °C 65.2 °F /  18.4 °C 30.11 in /  1019.5 hPa Calm     95 % 0.00 in /  0 mm
23:22 66.7 °F /  19.3 °C 65.2 °F /  18.4 °C 30.11 in /  1019.5 hPa Calm     95 % 0.00 in /  0 mm
23:27 66.7 °F /  19.3 °C 65.2 °F /  18.4 °C 30.12 in /  1019.9 hPa Calm     95 % 0.00 in /  0 mm
23:32 66.7 °F /  19.3 °C 65.2 °F /  18.4 °C 30.14 in /  1020.5 hPa Calm     95 % 0.00 in /  0 mm
23:37 66.8 °F /  19.3 °C 65.3 °F /  18.5 °C 30.11 in /  1019.5 hPa Calm     95 % 0.00 in /  0 mm
23:42 66.8 °F /  19.3 °C 65.3 °F /  18.5 °C 30.11 in /  1019.5 hPa Calm     95 % 0.00 in /  0 mm
23:47 66.8 °F /  19.3 °C 65.3 °F /  18.5 °C 30.14 in /  1020.5 hPa Calm   1.2 mph /  1.9 km/h 95 % 0.00 in /  0 mm
23:52 66.8 °F /  19.3 °C 65.3 °F /  18.5 °C 30.14 in /  1020.5 hPa Calm     95 % 0.00 in /  0 mm
23:57 66.8 °F /  19.3 °C 65.3 °F /  18.5 °C 30.11 in /  1019.5 hPa Calm     95 % 0.00 in /  0 mm
Crab Meadow Weather
Compliments of Weather Underground - 3 mb

Script developed by  Jim McMurry - jmcmurry@mwt.net Adapted for the template by  Wim van der Kuil - Leuven-Template.eu

Recycling: The average household throws away 13,000 separate pieces of paper each year. Most is packaging and junk mail.